sensor_id;sensor_type;location;lat;lon;timestamp;temperature;humidity
19025;DHT22;9645;51.448;6.260;2023-01-08T00:02:43;10.20;99.90
19025;DHT22;9645;51.448;6.260;2023-01-08T00:05:10;10.40;99.90
19025;DHT22;9645;51.448;6.260;2023-01-08T00:10:05;10.30;99.90
19025;DHT22;9645;51.448;6.260;2023-01-08T00:12:32;10.40;99.90
19025;DHT22;9645;51.448;6.260;2023-01-08T00:15:02;10.30;99.90
19025;DHT22;9645;51.448;6.260;2023-01-08T00:22:23;10.40;99.90
19025;DHT22;9645;51.448;6.260;2023-01-08T00:24:50;10.30;99.90
19025;DHT22;9645;51.448;6.260;2023-01-08T00:29:44;10.40;99.90
19025;DHT22;9645;51.448;6.260;2023-01-08T00:32:12;10.40;99.90
19025;DHT22;9645;51.448;6.260;2023-01-08T00:37:07;10.40;99.90
19025;DHT22;9645;51.448;6.260;2023-01-08T00:49:24;10.60;99.90
19025;DHT22;9645;51.448;6.260;2023-01-08T00:54:18;10.40;99.90
19025;DHT22;9645;51.448;6.260;2023-01-08T00:59:14;10.40;99.90
19025;DHT22;9645;51.448;6.260;2023-01-08T01:06:37;10.40;99.90
19025;DHT22;9645;51.448;6.260;2023-01-08T01:09:05;10.50;99.90
19025;DHT22;9645;51.448;6.260;2023-01-08T01:16:28;10.40;99.90
19025;DHT22;9645;51.448;6.260;2023-01-08T01:18:55;10.30;99.90
19025;DHT22;9645;51.448;6.260;2023-01-08T01:21:25;10.30;99.90
19025;DHT22;9645;51.448;6.260;2023-01-08T01:23:55;10.40;99.90
19025;DHT22;9645;51.448;6.260;2023-01-08T01:26:23;10.30;99.90
19025;DHT22;9645;51.448;6.260;2023-01-08T01:28:52;10.40;99.90
19025;DHT22;9645;51.448;6.260;2023-01-08T01:31:20;10.30;99.90
19025;DHT22;9645;51.448;6.260;2023-01-08T01:33:47;10.30;99.90
19025;DHT22;9645;51.448;6.260;2023-01-08T01:36:16;10.30;99.90
19025;DHT22;9645;51.448;6.260;2023-01-08T01:38:44;10.30;99.90
19025;DHT22;9645;51.448;6.260;2023-01-08T01:41:18;10.30;99.90
19025;DHT22;9645;51.448;6.260;2023-01-08T01:43:48;10.30;99.90
19025;DHT22;9645;51.448;6.260;2023-01-08T01:46:21;10.30;99.90
19025;DHT22;9645;51.448;6.260;2023-01-08T01:48:52;10.30;99.90
19025;DHT22;9645;51.448;6.260;2023-01-08T01:51:22;10.40;99.90
19025;DHT22;9645;51.448;6.260;2023-01-08T01:56:20;10.40;99.90
19025;DHT22;9645;51.448;6.260;2023-01-08T02:01:14;10.30;99.90
19025;DHT22;9645;51.448;6.260;2023-01-08T02:06:16;10.40;99.90
19025;DHT22;9645;51.448;6.260;2023-01-08T02:08:55;10.40;99.90
19025;DHT22;9645;51.448;6.260;2023-01-08T02:11:31;10.40;99.90
19025;DHT22;9645;51.448;6.260;2023-01-08T02:14:04;10.30;99.90
19025;DHT22;9645;51.448;6.260;2023-01-08T02:16:38;10.40;99.90
19025;DHT22;9645;51.448;6.260;2023-01-08T02:19:13;10.40;99.90
19025;DHT22;9645;51.448;6.260;2023-01-08T02:21:48;10.30;99.90
19025;DHT22;9645;51.448;6.260;2023-01-08T02:24:25;10.30;99.90
19025;DHT22;9645;51.448;6.260;2023-01-08T02:26:59;10.20;99.90
19025;DHT22;9645;51.448;6.260;2023-01-08T02:29:28;10.30;99.90
19025;DHT22;9645;51.448;6.260;2023-01-08T02:36:52;10.20;99.90
19025;DHT22;9645;51.448;6.260;2023-01-08T02:39:32;10.20;99.90
19025;DHT22;9645;51.448;6.260;2023-01-08T02:42:10;10.20;99.90
19025;DHT22;9645;51.448;6.260;2023-01-08T02:44:49;10.30;99.90
19025;DHT22;9645;51.448;6.260;2023-01-08T02:47:24;10.30;99.90
19025;DHT22;9645;51.448;6.260;2023-01-08T02:49:59;10.40;99.90
19025;DHT22;9645;51.448;6.260;2023-01-08T02:52:30;10.40;99.90
19025;DHT22;9645;51.448;6.260;2023-01-08T02:55:01;10.50;99.90
19025;DHT22;9645;51.448;6.260;2023-01-08T02:57:31;10.40;99.90
19025;DHT22;9645;51.448;6.260;2023-01-08T03:02:30;10.20;99.90
19025;DHT22;9645;51.448;6.260;2023-01-08T03:05:02;10.30;99.90
19025;DHT22;9645;51.448;6.260;2023-01-08T03:07:32;10.30;99.90
19025;DHT22;9645;51.448;6.260;2023-01-08T03:10:00;10.30;99.90
19025;DHT22;9645;51.448;6.260;2023-01-08T03:12:36;10.50;99.90
19025;DHT22;9645;51.448;6.260;2023-01-08T03:15:08;10.30;99.90
19025;DHT22;9645;51.448;6.260;2023-01-08T03:17:41;10.30;99.90
19025;DHT22;9645;51.448;6.260;2023-01-08T03:20:12;10.30;99.90
19025;DHT22;9645;51.448;6.260;2023-01-08T03:22:41;10.20;99.90
19025;DHT22;9645;51.448;6.260;2023-01-08T03:25:09;10.20;99.90
19025;DHT22;9645;51.448;6.260;2023-01-08T03:27:42;10.20;99.90
19025;DHT22;9645;51.448;6.260;2023-01-08T03:30:10;10.20;99.90
19025;DHT22;9645;51.448;6.260;2023-01-08T03:32:38;10.30;99.90
19025;DHT22;9645;51.448;6.260;2023-01-08T03:35:07;10.30;99.90
19025;DHT22;9645;51.448;6.260;2023-01-08T03:37:38;10.20;99.90
19025;DHT22;9645;51.448;6.260;2023-01-08T03:40:10;10.30;99.90
19025;DHT22;9645;51.448;6.260;2023-01-08T03:42:41;10.30;99.90
19025;DHT22;9645;51.448;6.260;2023-01-08T03:45:08;10.30;99.90
19025;DHT22;9645;51.448;6.260;2023-01-08T03:47:36;10.30;99.90
19025;DHT22;9645;51.448;6.260;2023-01-08T03:50:07;10.30;99.90
19025;DHT22;9645;51.448;6.260;2023-01-08T03:52:35;10.20;99.90
19025;DHT22;9645;51.448;6.260;2023-01-08T03:55:02;10.20;99.90
19025;DHT22;9645;51.448;6.260;2023-01-08T03:57:29;10.20;99.90
19025;DHT22;9645;51.448;6.260;2023-01-08T03:59:57;10.00;99.90
19025;DHT22;9645;51.448;6.260;2023-01-08T04:02:24;9.90;99.90
19025;DHT22;9645;51.448;6.260;2023-01-08T04:12:12;10.00;99.90
19025;DHT22;9645;51.448;6.260;2023-01-08T04:14:39;10.10;99.90
19025;DHT22;9645;51.448;6.260;2023-01-08T04:17:10;10.10;99.90
19025;DHT22;9645;51.448;6.260;2023-01-08T04:19:37;9.90;99.90
19025;DHT22;9645;51.448;6.260;2023-01-08T04:22:04;9.40;99.90
19025;DHT22;9645;51.448;6.260;2023-01-08T04:29:26;9.70;99.90
19025;DHT22;9645;51.448;6.260;2023-01-08T04:34:21;9.50;99.90
19025;DHT22;9645;51.448;6.260;2023-01-08T04:49:04;9.60;99.90
19025;DHT22;9645;51.448;6.260;2023-01-08T04:51:32;9.60;99.90
19025;DHT22;9645;51.448;6.260;2023-01-08T05:01:22;9.80;99.90
19025;DHT22;9645;51.448;6.260;2023-01-08T05:03:52;10.00;99.90
19025;DHT22;9645;51.448;6.260;2023-01-08T05:06:20;10.00;99.90
19025;DHT22;9645;51.448;6.260;2023-01-08T05:08:48;10.10;99.90
19025;DHT22;9645;51.448;6.260;2023-01-08T05:11:15;10.30;99.90
19025;DHT22;9645;51.448;6.260;2023-01-08T05:18:36;10.30;99.90
19025;DHT22;9645;51.448;6.260;2023-01-08T05:21:04;10.10;99.90
19025;DHT22;9645;51.448;6.260;2023-01-08T05:23:32;10.20;99.90
19025;DHT22;9645;51.448;6.260;2023-01-08T05:26:01;10.50;99.90
19025;DHT22;9645;51.448;6.260;2023-01-08T05:28:29;10.20;99.90
19025;DHT22;9645;51.448;6.260;2023-01-08T05:30:57;10.10;99.90
19025;DHT22;9645;51.448;6.260;2023-01-08T05:33:24;10.20;99.90
19025;DHT22;9645;51.448;6.260;2023-01-08T05:38:18;10.10;99.90
19025;DHT22;9645;51.448;6.260;2023-01-08T05:40:45;10.10;99.90
19025;DHT22;9645;51.448;6.260;2023-01-08T05:43:13;10.00;99.90
19025;DHT22;9645;51.448;6.260;2023-01-08T05:48:07;9.50;99.90
19025;DHT22;9645;51.448;6.260;2023-01-08T05:53:05;9.80;99.90
19025;DHT22;9645;51.448;6.260;2023-01-08T05:55:33;9.80;99.90
19025;DHT22;9645;51.448;6.260;2023-01-08T06:00:29;9.60;99.90
19025;DHT22;9645;51.448;6.260;2023-01-08T06:02:56;9.80;99.90
19025;DHT22;9645;51.448;6.260;2023-01-08T06:12:45;9.40;99.90
19025;DHT22;9645;51.448;6.260;2023-01-08T06:15:12;9.30;99.90
19025;DHT22;9645;51.448;6.260;2023-01-08T06:17:40;9.10;99.90
19025;DHT22;9645;51.448;6.260;2023-01-08T06:20:08;8.90;99.90
19025;DHT22;9645;51.448;6.260;2023-01-08T06:22:35;8.80;99.90
19025;DHT22;9645;51.448;6.260;2023-01-08T06:29:57;8.30;99.90
19025;DHT22;9645;51.448;6.260;2023-01-08T06:32:24;8.30;99.90
19025;DHT22;9645;51.448;6.260;2023-01-08T06:34:52;8.20;99.90
19025;DHT22;9645;51.448;6.260;2023-01-08T06:44:41;8.00;99.90
19025;DHT22;9645;51.448;6.260;2023-01-08T06:49:35;8.00;99.90
19025;DHT22;9645;51.448;6.260;2023-01-08T06:52:03;7.90;99.90
19025;DHT22;9645;51.448;6.260;2023-01-08T06:56:57;7.80;99.90
19025;DHT22;9645;51.448;6.260;2023-01-08T06:59:24;7.80;99.90
19025;DHT22;9645;51.448;6.260;2023-01-08T07:04:19;7.70;99.90
19025;DHT22;9645;51.448;6.260;2023-01-08T07:06:46;7.60;99.90
19025;DHT22;9645;51.448;6.260;2023-01-08T07:09:14;7.70;99.90
19025;DHT22;9645;51.448;6.260;2023-01-08T07:14:08;7.70;99.90
19025;DHT22;9645;51.448;6.260;2023-01-08T07:19:03;7.70;99.90
19025;DHT22;9645;51.448;6.260;2023-01-08T07:26:26;7.60;99.90
19025;DHT22;9645;51.448;6.260;2023-01-08T07:33:47;7.80;99.90
19025;DHT22;9645;51.448;6.260;2023-01-08T07:36:15;7.70;99.90
19025;DHT22;9645;51.448;6.260;2023-01-08T07:41:14;7.60;99.90
19025;DHT22;9645;51.448;6.260;2023-01-08T07:43:43;7.50;99.90
19025;DHT22;9645;51.448;6.260;2023-01-08T07:48:37;7.50;99.90
19025;DHT22;9645;51.448;6.260;2023-01-08T07:51:05;7.40;99.90
19025;DHT22;9645;51.448;6.260;2023-01-08T07:53:33;7.40;99.90
19025;DHT22;9645;51.448;6.260;2023-01-08T07:56:00;7.30;99.90
19025;DHT22;9645;51.448;6.260;2023-01-08T08:00:56;7.40;99.90
19025;DHT22;9645;51.448;6.260;2023-01-08T08:03:23;7.40;99.90
19025;DHT22;9645;51.448;6.260;2023-01-08T08:05:50;7.30;99.90
19025;DHT22;9645;51.448;6.260;2023-01-08T08:10:45;7.30;99.90
19025;DHT22;9645;51.448;6.260;2023-01-08T08:18:09;7.10;99.90
19025;DHT22;9645;51.448;6.260;2023-01-08T08:20:36;7.40;99.90
19025;DHT22;9645;51.448;6.260;2023-01-08T08:23:05;7.50;99.90
19025;DHT22;9645;51.448;6.260;2023-01-08T08:25:33;7.50;99.90
19025;DHT22;9645;51.448;6.260;2023-01-08T08:28:00;7.50;99.90
19025;DHT22;9645;51.448;6.260;2023-01-08T08:30:29;7.60;99.90
19025;DHT22;9645;51.448;6.260;2023-01-08T08:32:58;7.60;99.90
19025;DHT22;9645;51.448;6.260;2023-01-08T08:35:27;7.70;99.90
19025;DHT22;9645;51.448;6.260;2023-01-08T08:37:54;7.80;99.90
19025;DHT22;9645;51.448;6.260;2023-01-08T08:40:22;8.00;99.90
19025;DHT22;9645;51.448;6.260;2023-01-08T08:42:54;8.20;99.90
19025;DHT22;9645;51.448;6.260;2023-01-08T08:45:23;8.10;99.90
19025;DHT22;9645;51.448;6.260;2023-01-08T08:50:18;8.50;99.90
19025;DHT22;9645;51.448;6.260;2023-01-08T08:52:47;8.60;99.90
19025;DHT22;9645;51.448;6.260;2023-01-08T08:55:14;8.70;99.90
19025;DHT22;9645;51.448;6.260;2023-01-08T08:57:42;8.80;99.90
19025;DHT22;9645;51.448;6.260;2023-01-08T09:00:10;9.00;99.90
19025;DHT22;9645;51.448;6.260;2023-01-08T09:02:37;9.10;99.90
19025;DHT22;9645;51.448;6.260;2023-01-08T09:05:05;9.00;99.90
19025;DHT22;9645;51.448;6.260;2023-01-08T09:10:01;8.90;99.90
19025;DHT22;9645;51.448;6.260;2023-01-08T09:12:28;8.90;99.90
19025;DHT22;9645;51.448;6.260;2023-01-08T09:17:22;9.00;99.90
19025;DHT22;9645;51.448;6.260;2023-01-08T09:27:13;9.10;99.90
19025;DHT22;9645;51.448;6.260;2023-01-08T09:29:40;9.10;99.90
19025;DHT22;9645;51.448;6.260;2023-01-08T09:32:08;9.10;99.90
19025;DHT22;9645;51.448;6.260;2023-01-08T09:37:05;9.00;99.90
19025;DHT22;9645;51.448;6.260;2023-01-08T09:39:32;9.00;99.90
19025;DHT22;9645;51.448;6.260;2023-01-08T09:42:02;9.00;99.90
19025;DHT22;9645;51.448;6.260;2023-01-08T09:44:34;9.00;99.90
19025;DHT22;9645;51.448;6.260;2023-01-08T09:47:03;9.10;99.90
19025;DHT22;9645;51.448;6.260;2023-01-08T09:49:36;9.20;99.90
19025;DHT22;9645;51.448;6.260;2023-01-08T09:52:05;9.20;99.90
19025;DHT22;9645;51.448;6.260;2023-01-08T09:56:59;9.40;99.90
19025;DHT22;9645;51.448;6.260;2023-01-08T10:01:55;9.40;99.90
19025;DHT22;9645;51.448;6.260;2023-01-08T10:04:23;9.60;99.90
19025;DHT22;9645;51.448;6.260;2023-01-08T10:06:54;9.70;99.90
19025;DHT22;9645;51.448;6.260;2023-01-08T10:09:24;9.80;99.90
19025;DHT22;9645;51.448;6.260;2023-01-08T10:11:53;9.90;99.90
19025;DHT22;9645;51.448;6.260;2023-01-08T10:14:23;9.80;99.90
19025;DHT22;9645;51.448;6.260;2023-01-08T10:16:56;9.80;99.90
19025;DHT22;9645;51.448;6.260;2023-01-08T10:19:24;9.70;99.90
19025;DHT22;9645;51.448;6.260;2023-01-08T10:21:52;9.80;99.90
19025;DHT22;9645;51.448;6.260;2023-01-08T10:24:30;9.80;99.90
19025;DHT22;9645;51.448;6.260;2023-01-08T10:27:05;9.90;99.90
19025;DHT22;9645;51.448;6.260;2023-01-08T10:29:32;10.00;99.90
19025;DHT22;9645;51.448;6.260;2023-01-08T10:32:07;10.20;99.90
19025;DHT22;9645;51.448;6.260;2023-01-08T10:34:41;10.40;99.90
19025;DHT22;9645;51.448;6.260;2023-01-08T10:37:22;10.60;99.90
19025;DHT22;9645;51.448;6.260;2023-01-08T10:39:49;10.60;99.90
19025;DHT22;9645;51.448;6.260;2023-01-08T10:42:18;10.70;99.90
19025;DHT22;9645;51.448;6.260;2023-01-08T10:44:54;10.50;99.90
19025;DHT22;9645;51.448;6.260;2023-01-08T10:47:26;10.70;99.90
19025;DHT22;9645;51.448;6.260;2023-01-08T10:49:54;10.40;99.90
19025;DHT22;9645;51.448;6.260;2023-01-08T10:52:27;10.30;99.90
19025;DHT22;9645;51.448;6.260;2023-01-08T10:57:25;10.10;99.90
19025;DHT22;9645;51.448;6.260;2023-01-08T10:59:53;10.00;99.90
19025;DHT22;9645;51.448;6.260;2023-01-08T11:02:34;9.80;99.90
19025;DHT22;9645;51.448;6.260;2023-01-08T11:05:02;9.80;99.90
19025;DHT22;9645;51.448;6.260;2023-01-08T11:07:32;9.80;99.90
19025;DHT22;9645;51.448;6.260;2023-01-08T11:10:01;9.80;99.90
19025;DHT22;9645;51.448;6.260;2023-01-08T11:12:33;9.50;99.90
19025;DHT22;9645;51.448;6.260;2023-01-08T11:15:01;9.70;99.90
19025;DHT22;9645;51.448;6.260;2023-01-08T11:17:29;9.60;99.90
19025;DHT22;9645;51.448;6.260;2023-01-08T11:20:09;9.70;99.90
19025;DHT22;9645;51.448;6.260;2023-01-08T11:22:43;9.60;99.90
19025;DHT22;9645;51.448;6.260;2023-01-08T11:25:12;9.60;99.90
19025;DHT22;9645;51.448;6.260;2023-01-08T11:27:41;9.60;99.90
19025;DHT22;9645;51.448;6.260;2023-01-08T11:30:12;9.70;99.90
19025;DHT22;9645;51.448;6.260;2023-01-08T11:32:44;9.70;99.90
19025;DHT22;9645;51.448;6.260;2023-01-08T11:35:18;9.60;99.90
19025;DHT22;9645;51.448;6.260;2023-01-08T11:37:49;9.50;99.90
19025;DHT22;9645;51.448;6.260;2023-01-08T11:40:23;9.50;99.90
19025;DHT22;9645;51.448;6.260;2023-01-08T11:43:20;9.40;99.90
19025;DHT22;9645;51.448;6.260;2023-01-08T11:45:57;9.30;99.90
19025;DHT22;9645;51.448;6.260;2023-01-08T11:48:36;9.30;99.90
19025;DHT22;9645;51.448;6.260;2023-01-08T11:51:42;9.40;99.90
19025;DHT22;9645;51.448;6.260;2023-01-08T11:54:22;10.80;99.90
19025;DHT22;9645;51.448;6.260;2023-01-08T11:57:04;12.40;99.90
19025;DHT22;9645;51.448;6.260;2023-01-08T11:59:39;14.30;99.90
19025;DHT22;9645;51.448;6.260;2023-01-08T12:02:19;15.90;1.00
19025;DHT22;9645;51.448;6.260;2023-01-08T12:05:00;17.30;99.90
19025;DHT22;9645;51.448;6.260;2023-01-08T12:07:41;18.00;1.00
19025;DHT22;9645;51.448;6.260;2023-01-08T12:10:18;17.60;1.00
19025;DHT22;9645;51.448;6.260;2023-01-08T12:12:56;17.70;24.90
19025;DHT22;9645;51.448;6.260;2023-01-08T12:15:42;16.40;99.90
19025;DHT22;9645;51.448;6.260;2023-01-08T12:18:28;15.00;1.00
19025;DHT22;9645;51.448;6.260;2023-01-08T12:21:07;13.60;99.90
19025;DHT22;9645;51.448;6.260;2023-01-08T12:23:57;12.80;99.90
19025;DHT22;9645;51.448;6.260;2023-01-08T12:26:31;12.60;99.90
19025;DHT22;9645;51.448;6.260;2023-01-08T12:29:18;13.20;99.90
19025;DHT22;9645;51.448;6.260;2023-01-08T12:34:51;13.20;1.00
19025;DHT22;9645;51.448;6.260;2023-01-08T12:37:23;12.60;99.90
19025;DHT22;9645;51.448;6.260;2023-01-08T12:39:57;12.20;99.90
19025;DHT22;9645;51.448;6.260;2023-01-08T12:42:33;11.50;99.90
19025;DHT22;9645;51.448;6.260;2023-01-08T12:45:03;11.10;99.90
19025;DHT22;9645;51.448;6.260;2023-01-08T12:47:34;11.10;99.90
19025;DHT22;9645;51.448;6.260;2023-01-08T12:50:16;8.50;99.90
19025;DHT22;9645;51.448;6.260;2023-01-08T12:52:50;10.80;99.90
19025;DHT22;9645;51.448;6.260;2023-01-08T12:55:30;10.70;99.90
19025;DHT22;9645;51.448;6.260;2023-01-08T12:58:09;10.60;99.90
19025;DHT22;9645;51.448;6.260;2023-01-08T13:00:44;10.70;99.90
19025;DHT22;9645;51.448;6.260;2023-01-08T13:03:20;10.70;99.90
19025;DHT22;9645;51.448;6.260;2023-01-08T13:05:48;10.70;99.90
19025;DHT22;9645;51.448;6.260;2023-01-08T13:08:29;10.70;99.90
19025;DHT22;9645;51.448;6.260;2023-01-08T13:10:58;10.60;99.90
19025;DHT22;9645;51.448;6.260;2023-01-08T13:13:28;10.60;99.90
19025;DHT22;9645;51.448;6.260;2023-01-08T13:16:16;10.70;99.90
19025;DHT22;9645;51.448;6.260;2023-01-08T13:18:54;10.80;99.90
19025;DHT22;9645;51.448;6.260;2023-01-08T13:21:33;10.80;28.80
19025;DHT22;9645;51.448;6.260;2023-01-08T13:24:06;10.80;93.80
19025;DHT22;9645;51.448;6.260;2023-01-08T13:26:49;10.80;16.50
19025;DHT22;9645;51.448;6.260;2023-01-08T13:29:26;10.80;1.00
19025;DHT22;9645;51.448;6.260;2023-01-08T13:34:38;10.70;63.90
19025;DHT22;9645;51.448;6.260;2023-01-08T13:39:36;10.50;1.00
19025;DHT22;9645;51.448;6.260;2023-01-08T13:42:24;10.40;1.00
19025;DHT22;9645;51.448;6.260;2023-01-08T13:44:58;10.40;9.70
19025;DHT22;9645;51.448;6.260;2023-01-08T13:47:30;10.20;94.00
19025;DHT22;9645;51.448;6.260;2023-01-08T13:49:58;10.30;53.80
19025;DHT22;9645;51.448;6.260;2023-01-08T13:52:36;10.20;40.20
19025;DHT22;9645;51.448;6.260;2023-01-08T13:55:13;10.20;93.70
19025;DHT22;9645;51.448;6.260;2023-01-08T13:57:44;10.30;99.90
19025;DHT22;9645;51.448;6.260;2023-01-08T14:00:20;10.60;99.90
19025;DHT22;9645;51.448;6.260;2023-01-08T14:02:49;10.20;99.90
19025;DHT22;9645;51.448;6.260;2023-01-08T14:05:22;10.00;99.90
19025;DHT22;9645;51.448;6.260;2023-01-08T14:07:49;10.20;99.90
19025;DHT22;9645;51.448;6.260;2023-01-08T14:10:17;10.20;99.90
19025;DHT22;9645;51.448;6.260;2023-01-08T14:12:46;10.10;99.90
19025;DHT22;9645;51.448;6.260;2023-01-08T14:15:20;10.10;99.90
19025;DHT22;9645;51.448;6.260;2023-01-08T14:17:48;10.10;99.90
19025;DHT22;9645;51.448;6.260;2023-01-08T14:20:30;9.70;99.90
19025;DHT22;9645;51.448;6.260;2023-01-08T14:22:58;9.90;99.90
19025;DHT22;9645;51.448;6.260;2023-01-08T14:25:26;9.90;99.90
19025;DHT22;9645;51.448;6.260;2023-01-08T14:27:57;9.90;99.90
19025;DHT22;9645;51.448;6.260;2023-01-08T14:30:24;9.90;99.90
19025;DHT22;9645;51.448;6.260;2023-01-08T14:32:52;9.90;99.90
19025;DHT22;9645;51.448;6.260;2023-01-08T14:35:25;9.90;99.90
19025;DHT22;9645;51.448;6.260;2023-01-08T14:37:54;9.80;99.90
19025;DHT22;9645;51.448;6.260;2023-01-08T14:40:27;9.70;99.90
19025;DHT22;9645;51.448;6.260;2023-01-08T14:42:58;9.80;99.90
19025;DHT22;9645;51.448;6.260;2023-01-08T14:45:28;9.80;99.90
19025;DHT22;9645;51.448;6.260;2023-01-08T14:47:59;9.80;99.90
19025;DHT22;9645;51.448;6.260;2023-01-08T14:50:28;9.70;99.90
19025;DHT22;9645;51.448;6.260;2023-01-08T14:52:58;9.70;99.90
19025;DHT22;9645;51.448;6.260;2023-01-08T14:55:30;9.70;99.90
19025;DHT22;9645;51.448;6.260;2023-01-08T14:57:59;9.60;99.90
19025;DHT22;9645;51.448;6.260;2023-01-08T15:00:28;9.60;99.90
19025;DHT22;9645;51.448;6.260;2023-01-08T15:02:55;9.30;99.90
19025;DHT22;9645;51.448;6.260;2023-01-08T15:07:59;9.40;99.90
19025;DHT22;9645;51.448;6.260;2023-01-08T15:10:36;9.30;99.90
19025;DHT22;9645;51.448;6.260;2023-01-08T15:13:05;9.30;99.90
19025;DHT22;9645;51.448;6.260;2023-01-08T15:15:35;9.30;99.90
19025;DHT22;9645;51.448;6.260;2023-01-08T15:18:08;9.30;99.90
19025;DHT22;9645;51.448;6.260;2023-01-08T15:20:37;9.00;99.90
19025;DHT22;9645;51.448;6.260;2023-01-08T15:28:00;9.50;99.90
19025;DHT22;9645;51.448;6.260;2023-01-08T15:30:33;9.40;99.90
19025;DHT22;9645;51.448;6.260;2023-01-08T15:33:13;9.30;99.90
19025;DHT22;9645;51.448;6.260;2023-01-08T15:45:38;9.20;99.90
19025;DHT22;9645;51.448;6.260;2023-01-08T15:48:07;9.20;99.90
19025;DHT22;9645;51.448;6.260;2023-01-08T15:50:36;9.20;99.90
19025;DHT22;9645;51.448;6.260;2023-01-08T15:53:05;9.10;99.90
19025;DHT22;9645;51.448;6.260;2023-01-08T15:55:33;9.00;99.90
19025;DHT22;9645;51.448;6.260;2023-01-08T16:00:29;9.00;99.90
19025;DHT22;9645;51.448;6.260;2023-01-08T16:02:58;8.90;99.90
19025;DHT22;9645;51.448;6.260;2023-01-08T16:05:28;9.10;99.90
19025;DHT22;9645;51.448;6.260;2023-01-08T16:15:17;8.90;99.90
19025;DHT22;9645;51.448;6.260;2023-01-08T16:20:13;9.10;99.90
19025;DHT22;9645;51.448;6.260;2023-01-08T16:25:09;9.30;99.90
19025;DHT22;9645;51.448;6.260;2023-01-08T16:27:36;9.40;99.90
19025;DHT22;9645;51.448;6.260;2023-01-08T16:30:06;9.40;99.90
19025;DHT22;9645;51.448;6.260;2023-01-08T16:37:29;9.20;99.90
19025;DHT22;9645;51.448;6.260;2023-01-08T16:47:18;8.80;99.90
19025;DHT22;9645;51.448;6.260;2023-01-08T16:49:45;8.80;99.90
19025;DHT22;9645;51.448;6.260;2023-01-08T16:54:47;8.70;99.90
19025;DHT22;9645;51.448;6.260;2023-01-08T16:59:41;8.60;99.90
19025;DHT22;9645;51.448;6.260;2023-01-08T17:02:08;8.50;99.90
19025;DHT22;9645;51.448;6.260;2023-01-08T17:04:36;8.50;99.90
19025;DHT22;9645;51.448;6.260;2023-01-08T17:07:05;8.40;99.90
19025;DHT22;9645;51.448;6.260;2023-01-08T17:09:32;8.30;99.90
19025;DHT22;9645;51.448;6.260;2023-01-08T17:12:01;8.20;99.90
19025;DHT22;9645;51.448;6.260;2023-01-08T17:14:28;8.10;99.90
19025;DHT22;9645;51.448;6.260;2023-01-08T17:16:55;8.20;99.90
19025;DHT22;9645;51.448;6.260;2023-01-08T17:21:50;8.30;99.90
19025;DHT22;9645;51.448;6.260;2023-01-08T17:26:44;8.30;99.90
19025;DHT22;9645;51.448;6.260;2023-01-08T17:29:12;8.30;99.90
19025;DHT22;9645;51.448;6.260;2023-01-08T17:34:10;8.30;99.90
19025;DHT22;9645;51.448;6.260;2023-01-08T17:36:38;8.30;99.90
19025;DHT22;9645;51.448;6.260;2023-01-08T17:41:34;8.20;99.90
19025;DHT22;9645;51.448;6.260;2023-01-08T17:44:20;8.10;99.90
19025;DHT22;9645;51.448;6.260;2023-01-08T17:49:16;7.90;99.90
19025;DHT22;9645;51.448;6.260;2023-01-08T17:51:44;7.90;99.90
19025;DHT22;9645;51.448;6.260;2023-01-08T17:54:11;7.90;99.90
19025;DHT22;9645;51.448;6.260;2023-01-08T17:59:11;7.80;99.90
19025;DHT22;9645;51.448;6.260;2023-01-08T18:01:39;7.80;99.90
19025;DHT22;9645;51.448;6.260;2023-01-08T18:09:01;7.80;99.90
19025;DHT22;9645;51.448;6.260;2023-01-08T18:11:28;7.70;99.90
19025;DHT22;9645;51.448;6.260;2023-01-08T18:13:56;7.70;99.90
19025;DHT22;9645;51.448;6.260;2023-01-08T18:16:24;7.70;99.90
19025;DHT22;9645;51.448;6.260;2023-01-08T18:18:54;7.60;99.90
19025;DHT22;9645;51.448;6.260;2023-01-08T18:21:22;7.60;99.90
19025;DHT22;9645;51.448;6.260;2023-01-08T18:26:18;7.50;99.90
19025;DHT22;9645;51.448;6.260;2023-01-08T18:28:46;7.50;99.90
19025;DHT22;9645;51.448;6.260;2023-01-08T18:31:14;7.50;99.90
19025;DHT22;9645;51.448;6.260;2023-01-08T18:36:11;7.50;99.90
19025;DHT22;9645;51.448;6.260;2023-01-08T18:38:40;7.50;99.90
19025;DHT22;9645;51.448;6.260;2023-01-08T18:41:08;7.40;99.90
19025;DHT22;9645;51.448;6.260;2023-01-08T18:43:36;7.40;99.90
19025;DHT22;9645;51.448;6.260;2023-01-08T18:46:05;7.50;99.90
19025;DHT22;9645;51.448;6.260;2023-01-08T18:48:33;7.50;99.90
19025;DHT22;9645;51.448;6.260;2023-01-08T18:53:32;7.30;99.90
19025;DHT22;9645;51.448;6.260;2023-01-08T18:58:27;7.40;99.90
19025;DHT22;9645;51.448;6.260;2023-01-08T19:05:48;7.40;99.90
19025;DHT22;9645;51.448;6.260;2023-01-08T19:08:15;7.50;99.90
19025;DHT22;9645;51.448;6.260;2023-01-08T19:10:44;7.60;99.90
19025;DHT22;9645;51.448;6.260;2023-01-08T19:13:11;7.60;99.90
19025;DHT22;9645;51.448;6.260;2023-01-08T19:15:38;7.60;99.90
19025;DHT22;9645;51.448;6.260;2023-01-08T19:20:33;7.40;99.90
19025;DHT22;9645;51.448;6.260;2023-01-08T19:25:28;7.40;99.90
19025;DHT22;9645;51.448;6.260;2023-01-08T19:27:56;7.40;99.90
19025;DHT22;9645;51.448;6.260;2023-01-08T19:32:50;7.30;99.90
19025;DHT22;9645;51.448;6.260;2023-01-08T19:37:44;7.10;99.90
19025;DHT22;9645;51.448;6.260;2023-01-08T19:40:12;7.00;99.90
19025;DHT22;9645;51.448;6.260;2023-01-08T19:42:39;7.00;99.90
19025;DHT22;9645;51.448;6.260;2023-01-08T19:45:24;7.10;99.90
19025;DHT22;9645;51.448;6.260;2023-01-08T19:52:48;7.00;99.90
19025;DHT22;9645;51.448;6.260;2023-01-08T19:55:15;7.10;99.90
19025;DHT22;9645;51.448;6.260;2023-01-08T19:57:46;7.30;99.90
19025;DHT22;9645;51.448;6.260;2023-01-08T20:00:14;7.30;99.90
19025;DHT22;9645;51.448;6.260;2023-01-08T20:02:43;7.40;99.90
19025;DHT22;9645;51.448;6.260;2023-01-08T20:05:10;7.30;99.90
19025;DHT22;9645;51.448;6.260;2023-01-08T20:10:05;7.40;99.90
19025;DHT22;9645;51.448;6.260;2023-01-08T20:17:27;7.50;99.90
19025;DHT22;9645;51.448;6.260;2023-01-08T20:19:55;7.50;99.90
19025;DHT22;9645;51.448;6.260;2023-01-08T20:22:23;7.50;99.90
19025;DHT22;9645;51.448;6.260;2023-01-08T20:24:52;7.60;99.90
19025;DHT22;9645;51.448;6.260;2023-01-08T20:27:19;7.60;99.90
19025;DHT22;9645;51.448;6.260;2023-01-08T20:32:14;7.70;99.90
19025;DHT22;9645;51.448;6.260;2023-01-08T20:37:10;7.70;99.90
19025;DHT22;9645;51.448;6.260;2023-01-08T20:39:37;7.70;99.90
19025;DHT22;9645;51.448;6.260;2023-01-08T20:42:04;7.70;99.90
19025;DHT22;9645;51.448;6.260;2023-01-08T20:44:32;7.30;99.90
19025;DHT22;9645;51.448;6.260;2023-01-08T20:46:59;7.80;99.90
19025;DHT22;9645;51.448;6.260;2023-01-08T20:54:23;7.80;99.90
19025;DHT22;9645;51.448;6.260;2023-01-08T21:09:08;7.90;99.90
19025;DHT22;9645;51.448;6.260;2023-01-08T21:11:38;8.00;99.90
19025;DHT22;9645;51.448;6.260;2023-01-08T21:14:07;8.00;99.90
19025;DHT22;9645;51.448;6.260;2023-01-08T21:16:35;8.00;99.90
19025;DHT22;9645;51.448;6.260;2023-01-08T21:19:04;8.10;99.90
19025;DHT22;9645;51.448;6.260;2023-01-08T21:21:32;8.10;99.90
19025;DHT22;9645;51.448;6.260;2023-01-08T21:24:02;8.10;99.90
19025;DHT22;9645;51.448;6.260;2023-01-08T21:26:30;8.20;99.90
19025;DHT22;9645;51.448;6.260;2023-01-08T21:28:59;8.30;99.90
19025;DHT22;9645;51.448;6.260;2023-01-08T21:31:27;8.30;99.90
19025;DHT22;9645;51.448;6.260;2023-01-08T21:33:56;8.30;99.90